createdAt,value
2022-11-08T00:01:33.046Z,21.90
2022-11-08T00:04:05.534Z,22.10
2022-11-08T00:06:55.632Z,22.10
2022-11-08T00:09:45.564Z,22.30
2022-11-08T00:12:36.170Z,22.30
2022-11-08T00:15:10.312Z,22.30
2022-11-08T00:17:41.015Z,22.40
2022-11-08T00:20:12.579Z,22.50
2022-11-08T00:22:43.048Z,22.60
2022-11-08T00:25:14.300Z,22.50
2022-11-08T00:27:44.652Z,22.60
2022-11-08T00:30:15.115Z,22.90
2022-11-08T00:32:45.473Z,22.80
2022-11-08T00:35:15.932Z,22.70
2022-11-08T00:37:46.035Z,23.00
2022-11-08T00:40:16.478Z,23.10
2022-11-08T00:42:46.481Z,23.20
2022-11-08T00:45:16.654Z,23.40
2022-11-08T00:47:47.094Z,23.50
2022-11-08T00:50:17.463Z,23.60
2022-11-08T00:52:48.128Z,23.50
2022-11-08T00:55:18.803Z,23.50
2022-11-08T00:58:04.683Z,23.50
2022-11-08T01:00:35.771Z,23.50
2022-11-08T01:03:26.085Z,23.60
2022-11-08T01:05:57.501Z,23.70
2022-11-08T01:08:27.980Z,23.90
2022-11-08T01:10:58.140Z,24.10
2022-11-08T01:13:29.073Z,24.10
2022-11-08T01:15:59.956Z,23.90
2022-11-08T01:18:30.424Z,24.00
2022-11-08T01:21:01.257Z,24.20
2022-11-08T01:23:32.522Z,24.40
2022-11-08T01:26:15.491Z,24.60
2022-11-08T01:28:46.889Z,24.50
2022-11-08T01:31:26.822Z,24.80
2022-11-08T01:33:57.503Z,25.00
2022-11-08T01:36:29.550Z,24.60
2022-11-08T01:39:00.148Z,24.50
2022-11-08T01:41:30.902Z,24.60
2022-11-08T01:44:02.194Z,24.60
2022-11-08T01:46:43.345Z,25.10
2022-11-08T01:49:39.549Z,25.00
2022-11-08T01:52:43.678Z,25.00
2022-11-08T01:55:37.402Z,25.40
2022-11-08T01:58:20.470Z,25.70
2022-11-08T02:00:51.548Z,26.00
2022-11-08T02:03:23.916Z,26.00
2022-11-08T02:05:57.792Z,25.90
2022-11-08T02:08:40.589Z,26.20
2022-11-08T02:11:14.595Z,26.50
2022-11-08T02:13:45.045Z,26.50
2022-11-08T02:16:18.036Z,26.60
2022-11-08T02:18:49.818Z,26.60
2022-11-08T02:21:40.456Z,26.90
2022-11-08T02:24:13.539Z,27.20
2022-11-08T02:26:44.687Z,27.20
2022-11-08T02:29:36.630Z,27.40
2022-11-08T02:32:07.998Z,27.00
2022-11-08T02:34:47.627Z,27.40
2022-11-08T02:37:21.749Z,27.30
2022-11-08T02:39:52.182Z,27.50
2022-11-08T02:42:23.572Z,27.70
2022-11-08T02:44:54.029Z,27.50
2022-11-08T02:47:25.709Z,27.80
2022-11-08T02:49:56.077Z,27.80
2022-11-08T02:52:26.506Z,27.90
2022-11-08T02:54:57.024Z,27.90
2022-11-08T02:57:27.518Z,28.10
2022-11-08T02:59:59.051Z,28.40
2022-11-08T03:02:30.086Z,28.70
2022-11-08T03:05:00.569Z,28.30
2022-11-08T03:07:31.893Z,28.30
2022-11-08T03:10:02.019Z,28.20
2022-11-08T03:12:32.357Z,28.50
2022-11-08T03:15:03.111Z,28.80
2022-11-08T03:17:35.417Z,28.80
2022-11-08T03:20:07.118Z,28.40
2022-11-08T03:22:37.534Z,28.90
2022-11-08T03:25:08.055Z,29.00
2022-11-08T03:27:38.924Z,29.00
2022-11-08T03:30:11.101Z,29.30
2022-11-08T03:32:41.690Z,29.00
2022-11-08T03:35:12.106Z,29.10
2022-11-08T03:37:42.006Z,29.30
2022-11-08T03:40:13.033Z,29.40
2022-11-08T03:42:43.095Z,29.30
2022-11-08T03:45:13.928Z,29.70
2022-11-08T03:47:47.171Z,30.00
2022-11-08T03:50:19.423Z,30.20
2022-11-08T03:52:54.996Z,29.70
2022-11-08T03:55:29.055Z,30.00
2022-11-08T03:58:00.313Z,30.00
2022-11-08T04:00:32.129Z,29.80
2022-11-08T04:03:07.032Z,29.80
2022-11-08T04:05:37.832Z,29.80
2022-11-08T04:08:08.465Z,30.10
2022-11-08T04:10:39.065Z,30.40
2022-11-08T04:13:30.753Z,30.10
2022-11-08T04:16:01.136Z,30.70
2022-11-08T04:18:51.125Z,30.40
2022-11-08T04:21:23.277Z,30.50
2022-11-08T04:23:55.108Z,30.60
2022-11-08T04:26:25.531Z,30.70
2022-11-08T04:28:55.578Z,30.80
2022-11-08T04:31:25.702Z,31.10
2022-11-08T04:33:56.454Z,31.10
2022-11-08T04:36:27.120Z,31.30
2022-11-08T04:38:57.516Z,30.70
2022-11-08T04:41:29.280Z,31.20
2022-11-08T04:43:59.820Z,31.40
2022-11-08T04:46:31.459Z,31.10
2022-11-08T04:49:02.695Z,31.40
2022-11-08T04:51:34.907Z,31.50
2022-11-08T04:54:07.808Z,31.40
2022-11-08T04:56:38.249Z,31.50
2022-11-08T04:59:12.229Z,31.30
2022-11-08T05:01:42.986Z,30.90
2022-11-08T05:04:13.391Z,30.40
2022-11-08T05:06:43.595Z,31.10
2022-11-08T05:09:14.880Z,31.80
2022-11-08T05:11:44.918Z,31.70
2022-11-08T05:14:14.936Z,32.00
2022-11-08T05:16:45.044Z,32.20
2022-11-08T05:19:14.758Z,31.90
2022-11-08T05:22:04.843Z,31.90
2022-11-08T05:24:35.122Z,32.30
2022-11-08T05:27:06.231Z,32.00
2022-11-08T05:29:41.958Z,32.10
2022-11-08T05:32:12.220Z,32.10
2022-11-08T05:34:42.520Z,31.90
2022-11-08T05:37:13.527Z,31.30
2022-11-08T05:39:44.185Z,31.70
2022-11-08T05:42:14.733Z,32.10
2022-11-08T05:44:45.629Z,31.80
2022-11-08T05:47:15.977Z,32.10
2022-11-08T05:49:45.712Z,32.40
2022-11-08T05:52:15.767Z,32.60
2022-11-08T05:54:45.806Z,32.70
2022-11-08T05:57:21.127Z,32.90
2022-11-08T05:59:52.518Z,32.70
2022-11-08T06:02:23.485Z,32.60
2022-11-08T06:04:53.978Z,32.30
2022-11-08T06:07:24.725Z,32.10
2022-11-08T06:09:55.691Z,32.10
2022-11-08T06:12:25.886Z,32.50
2022-11-08T06:14:56.330Z,32.40
2022-11-08T06:17:30.088Z,33.00
2022-11-08T06:20:00.823Z,32.50
2022-11-08T06:22:34.184Z,32.50
2022-11-08T06:25:04.511Z,33.00
2022-11-08T06:27:34.955Z,33.30
2022-11-08T06:30:07.216Z,33.50
2022-11-08T06:32:37.991Z,33.70
2022-11-08T06:35:08.852Z,33.40
2022-11-08T06:37:39.601Z,33.50
2022-11-08T06:40:11.569Z,33.60
2022-11-08T06:42:42.011Z,33.80
2022-11-08T06:45:13.242Z,33.90
2022-11-08T06:47:43.481Z,33.90
2022-11-08T06:50:14.401Z,33.60
2022-11-08T06:52:44.690Z,33.20
2022-11-08T06:55:14.980Z,33.40
2022-11-08T06:57:45.433Z,33.30
2022-11-08T07:00:17.100Z,33.20
2022-11-08T07:02:48.125Z,33.00
2022-11-08T07:05:18.860Z,33.40
2022-11-08T07:07:53.962Z,33.70
2022-11-08T07:10:26.421Z,33.50
2022-11-08T07:13:06.542Z,33.60
2022-11-08T07:15:38.758Z,33.50
2022-11-08T07:18:12.875Z,33.30
2022-11-08T07:20:44.538Z,33.30
2022-11-08T07:23:15.534Z,33.50
2022-11-08T07:25:46.298Z,33.40
2022-11-08T07:28:19.811Z,33.10
2022-11-08T07:30:51.622Z,33.60
2022-11-08T07:33:22.127Z,33.50
2022-11-08T07:35:52.440Z,33.60
2022-11-08T07:38:23.948Z,33.40
2022-11-08T07:41:01.883Z,32.90
2022-11-08T07:43:32.805Z,33.20
2022-11-08T07:46:12.811Z,33.40
2022-11-08T07:48:43.252Z,34.00
2022-11-08T07:51:13.572Z,33.70
2022-11-08T07:53:46.355Z,33.50
2022-11-08T07:56:17.014Z,33.20
2022-11-08T07:58:48.466Z,33.00
2022-11-08T08:01:21.872Z,32.80
2022-11-08T08:03:52.509Z,33.00
2022-11-08T08:06:24.854Z,33.30
2022-11-08T08:08:59.168Z,34.00
2022-11-08T08:11:33.453Z,34.10
2022-11-08T08:14:03.897Z,33.70
2022-11-08T08:16:38.347Z,33.40
2022-11-08T08:19:09.712Z,33.10
2022-11-08T08:21:42.825Z,33.30
2022-11-08T08:24:15.920Z,33.20
2022-11-08T08:26:47.348Z,32.90
2022-11-08T08:29:18.425Z,33.20
2022-11-08T08:31:50.477Z,32.90
2022-11-08T08:34:21.340Z,32.80
2022-11-08T08:36:51.641Z,33.20
2022-11-08T08:39:22.098Z,33.10
2022-11-08T08:41:53.072Z,33.10
2022-11-08T08:44:23.613Z,33.00
2022-11-08T08:46:54.395Z,33.00
2022-11-08T08:49:24.967Z,32.90
2022-11-08T08:51:55.365Z,32.90
2022-11-08T08:54:29.469Z,33.10
2022-11-08T08:57:00.520Z,33.00
2022-11-08T09:02:22.625Z,32.80
2022-11-08T09:04:53.177Z,32.90
2022-11-08T09:07:23.601Z,32.60
2022-11-08T09:09:54.407Z,32.70
2022-11-08T09:12:25.051Z,32.70
2022-11-08T09:14:56.122Z,32.40
2022-11-08T09:17:27.944Z,32.50
2022-11-08T09:19:59.351Z,32.40
2022-11-08T09:22:30.234Z,32.30
2022-11-08T09:25:00.957Z,32.00
2022-11-08T09:27:33.475Z,32.20
2022-11-08T09:30:04.546Z,31.90
2022-11-08T09:32:59.256Z,31.80
2022-11-08T09:35:25.939Z,31.70
2022-11-08T09:37:57.353Z,31.90
2022-11-08T09:41:06.851Z,31.70
2022-11-08T09:44:16.423Z,31.70
2022-11-08T09:47:12.753Z,31.60
2022-11-08T09:49:52.046Z,31.60
2022-11-08T09:52:29.511Z,31.70
2022-11-08T09:55:36.035Z,31.30
2022-11-08T09:58:30.577Z,31.10
2022-11-08T10:01:01.927Z,31.20
2022-11-08T10:03:33.300Z,31.10
2022-11-08T10:06:37.595Z,31.10
2022-11-08T10:09:36.046Z,30.90
2022-11-08T10:12:27.483Z,31.10
2022-11-08T10:15:37.036Z,31.00
2022-11-08T10:18:46.375Z,30.80
2022-11-08T10:21:55.953Z,30.90
2022-11-08T10:24:52.292Z,30.80
2022-11-08T10:27:44.798Z,30.60
2022-11-08T10:30:37.473Z,30.50
2022-11-08T10:33:31.023Z,30.50
2022-11-08T10:36:40.550Z,30.50
2022-11-08T10:39:28.522Z,30.50
2022-11-08T10:42:21.331Z,30.40
2022-11-08T10:44:51.761Z,30.30
2022-11-08T10:47:28.905Z,30.30
2022-11-08T10:50:03.606Z,30.10
2022-11-08T10:52:42.746Z,29.90
2022-11-08T10:55:28.795Z,29.80
2022-11-08T10:57:59.513Z,29.90
2022-11-08T11:00:37.250Z,30.00
2022-11-08T11:03:30.453Z,30.10
2022-11-08T11:06:03.695Z,29.60
2022-11-08T11:08:35.155Z,29.30
2022-11-08T11:11:37.054Z,29.50
2022-11-08T11:14:22.462Z,29.60
2022-11-08T11:17:20.029Z,29.60
2022-11-08T11:19:58.703Z,29.50
2022-11-08T11:22:35.721Z,29.30
2022-11-08T11:25:20.131Z,29.40
2022-11-08T11:28:15.592Z,29.00
2022-11-08T11:31:00.491Z,28.90
2022-11-08T11:33:32.586Z,29.10
2022-11-08T11:36:13.637Z,29.20
2022-11-08T11:39:07.613Z,29.10
2022-11-08T11:42:17.840Z,29.10
2022-11-08T11:45:23.577Z,28.80
2022-11-08T11:47:57.348Z,28.60
2022-11-08T11:50:47.379Z,28.70
2022-11-08T11:53:39.499Z,28.90
2022-11-08T11:56:50.313Z,28.90
2022-11-08T11:59:47.206Z,28.90
2022-11-08T12:02:57.144Z,28.50
2022-11-08T12:05:46.987Z,28.60
2022-11-08T12:08:53.704Z,28.80
2022-11-08T12:11:57.051Z,28.80
2022-11-08T12:15:04.587Z,28.60
2022-11-08T12:18:06.218Z,28.40
2022-11-08T12:21:06.447Z,28.30
2022-11-08T12:24:13.600Z,28.40
2022-11-08T12:27:12.140Z,28.30
2022-11-08T12:30:07.787Z,28.30
2022-11-08T12:33:11.683Z,27.70
2022-11-08T12:36:12.296Z,27.50
2022-11-08T12:39:19.197Z,27.70
2022-11-08T12:42:18.779Z,27.70
2022-11-08T12:45:26.472Z,27.80
2022-11-08T12:48:19.353Z,27.50
2022-11-08T12:51:18.580Z,27.40
2022-11-08T12:54:28.063Z,26.60
2022-11-08T12:57:02.862Z,26.50
2022-11-08T13:00:04.153Z,27.00
2022-11-08T13:02:42.407Z,27.30
2022-11-08T13:05:37.795Z,27.10
2022-11-08T13:08:28.535Z,27.20
2022-11-08T13:11:26.466Z,27.30
2022-11-08T13:13:59.963Z,27.30
2022-11-08T13:16:43.533Z,27.30
2022-11-08T13:19:53.007Z,27.20
2022-11-08T13:22:45.587Z,26.90
2022-11-08T13:25:36.153Z,27.10
2022-11-08T13:28:45.734Z,27.10
2022-11-08T13:31:27.876Z,27.00
2022-11-08T13:34:37.068Z,26.40
2022-11-08T13:37:35.018Z,26.00
2022-11-08T13:40:42.600Z,26.10
2022-11-08T13:43:36.319Z,26.40
2022-11-08T13:46:46.484Z,26.50
2022-11-08T13:49:23.280Z,26.70
2022-11-08T13:52:32.930Z,26.70
2022-11-08T13:55:03.425Z,26.40
2022-11-08T13:57:58.551Z,26.40
2022-11-08T14:00:44.783Z,26.30
2022-11-08T14:03:54.148Z,26.20
2022-11-08T14:06:53.583Z,26.20
2022-11-08T14:09:59.379Z,26.20
2022-11-08T14:13:09.272Z,26.20
2022-11-08T14:15:48.898Z,26.10
2022-11-08T14:18:37.218Z,26.10
2022-11-08T14:21:08.699Z,26.10
2022-11-08T14:23:43.537Z,26.20
2022-11-08T14:26:22.883Z,26.20
2022-11-08T14:28:54.417Z,26.20
2022-11-08T14:31:36.184Z,26.10
2022-11-08T14:34:06.327Z,26.10
2022-11-08T14:36:37.974Z,26.10
2022-11-08T14:39:18.077Z,26.10
2022-11-08T14:41:53.589Z,25.90
2022-11-08T14:44:25.259Z,25.40
2022-11-08T14:46:55.779Z,25.60
2022-11-08T14:49:39.950Z,25.60
2022-11-08T14:52:32.596Z,25.80
2022-11-08T14:55:11.621Z,25.80
2022-11-08T14:57:44.227Z,25.90
2022-11-08T15:00:28.399Z,25.60
2022-11-08T15:03:04.796Z,25.50
2022-11-08T15:05:45.978Z,25.60
2022-11-08T15:08:56.558Z,25.60
2022-11-08T15:11:33.503Z,25.50
2022-11-08T15:14:20.868Z,25.50
2022-11-08T15:17:02.728Z,25.40
2022-11-08T15:19:48.099Z,25.40
2022-11-08T15:22:38.100Z,25.30
2022-11-08T15:25:34.840Z,25.20
2022-11-08T15:28:22.571Z,25.20
2022-11-08T15:31:04.830Z,25.30
2022-11-08T15:33:39.865Z,25.00
2022-11-08T15:36:18.678Z,25.00
2022-11-08T15:38:52.546Z,25.00
2022-11-08T15:41:43.256Z,25.00
2022-11-08T15:44:27.430Z,24.80
2022-11-08T15:46:58.970Z,24.80
2022-11-08T15:49:32.798Z,24.80
2022-11-08T15:52:05.073Z,24.80
2022-11-08T15:54:36.906Z,24.80
2022-11-08T15:57:08.253Z,24.70
2022-11-08T15:59:39.249Z,24.60
2022-11-08T16:02:16.191Z,24.50
2022-11-08T16:04:46.681Z,24.40
2022-11-08T16:07:17.551Z,24.30
2022-11-08T16:09:48.426Z,24.30
2022-11-08T16:12:19.831Z,24.40
2022-11-08T16:14:50.347Z,24.30
2022-11-08T16:17:21.767Z,24.40
2022-11-08T16:19:51.773Z,24.10
2022-11-08T16:22:22.456Z,23.50
2022-11-08T16:24:52.906Z,23.70
2022-11-08T16:27:23.444Z,24.00
2022-11-08T16:29:54.226Z,23.90
2022-11-08T16:32:25.016Z,24.00
2022-11-08T16:34:55.352Z,24.10
2022-11-08T16:37:25.537Z,24.10
2022-11-08T16:39:56.304Z,24.00
2022-11-08T16:42:27.035Z,23.90
2022-11-08T16:44:57.590Z,23.80
2022-11-08T16:47:28.955Z,23.70
2022-11-08T16:49:59.347Z,23.20
2022-11-08T16:52:29.655Z,23.10
2022-11-08T16:55:00.352Z,23.10
2022-11-08T16:57:35.182Z,23.30
2022-11-08T17:00:07.410Z,23.30
2022-11-08T17:02:39.908Z,22.70
2022-11-08T17:05:19.199Z,22.50
2022-11-08T17:07:49.655Z,22.50
2022-11-08T17:10:23.506Z,22.90
2022-11-08T17:12:54.005Z,23.20
2022-11-08T17:15:29.033Z,23.20
2022-11-08T17:18:00.888Z,23.00
2022-11-08T17:20:31.370Z,23.20
2022-11-08T17:23:01.408Z,23.30
2022-11-08T17:25:31.860Z,23.30
2022-11-08T17:28:02.151Z,23.20
2022-11-08T17:30:32.388Z,23.00
2022-11-08T17:33:02.368Z,23.10
2022-11-08T17:35:33.218Z,23.00
2022-11-08T17:38:03.560Z,23.00
2022-11-08T17:40:33.998Z,22.70
2022-11-08T17:43:04.289Z,22.70
2022-11-08T17:45:34.687Z,22.60
2022-11-08T17:48:05.437Z,22.70
2022-11-08T17:50:35.505Z,22.50
2022-11-08T17:53:05.527Z,22.60
2022-11-08T17:55:36.215Z,22.40
2022-11-08T17:58:06.620Z,22.40
2022-11-08T18:00:37.147Z,22.60
2022-11-08T18:03:12.509Z,22.60
2022-11-08T18:05:42.785Z,22.50
2022-11-08T18:08:12.778Z,22.10
2022-11-08T18:10:46.528Z,21.80
2022-11-08T18:13:18.517Z,22.00
2022-11-08T18:15:49.252Z,22.40
2022-11-08T18:18:20.423Z,22.50
2022-11-08T18:20:57.625Z,22.40
2022-11-08T18:23:27.997Z,21.90
2022-11-08T18:25:58.319Z,21.70
2022-11-08T18:28:29.228Z,21.70
2022-11-08T18:31:10.328Z,21.80
2022-11-08T18:33:40.882Z,21.80
2022-11-08T18:36:17.310Z,22.10
2022-11-08T18:38:47.996Z,22.30
2022-11-08T18:41:30.244Z,22.40
2022-11-08T18:44:02.093Z,22.50
2022-11-08T18:46:42.960Z,22.60
2022-11-08T18:49:13.569Z,22.60
2022-11-08T18:51:44.601Z,22.60
2022-11-08T18:54:14.913Z,22.60
2022-11-08T18:56:44.952Z,22.60
2022-11-08T18:59:15.851Z,22.70
2022-11-08T19:01:46.638Z,22.70
2022-11-08T19:04:17.065Z,22.50
2022-11-08T19:06:53.090Z,22.30
2022-11-08T19:09:24.849Z,22.30
2022-11-08T19:11:55.403Z,22.20
2022-11-08T19:14:26.234Z,22.30
2022-11-08T19:16:57.674Z,22.30
2022-11-08T19:19:27.707Z,22.30
2022-11-08T19:21:58.025Z,22.20
2022-11-08T19:24:28.372Z,22.10
2022-11-08T19:26:58.372Z,22.20
2022-11-08T19:29:28.495Z,22.20
2022-11-08T19:31:59.101Z,22.20
2022-11-08T19:34:29.549Z,22.00
2022-11-08T19:36:59.809Z,21.80
2022-11-08T19:39:29.839Z,21.80
2022-11-08T19:42:00.241Z,21.90
2022-11-08T19:44:30.318Z,22.00
2022-11-08T19:47:00.155Z,22.00
2022-11-08T19:49:32.268Z,21.80
2022-11-08T19:52:02.303Z,21.60
2022-11-08T19:54:32.056Z,21.80
2022-11-08T19:57:05.229Z,21.80
2022-11-08T19:59:36.074Z,21.80
2022-11-08T20:02:06.579Z,21.90
2022-11-08T20:04:36.873Z,21.80
2022-11-08T20:07:07.021Z,21.70
2022-11-08T20:09:37.542Z,21.60
2022-11-08T20:12:07.673Z,21.50
2022-11-08T20:14:38.065Z,21.60
2022-11-08T20:17:08.433Z,21.80
2022-11-08T20:19:38.961Z,21.60
2022-11-08T20:22:09.547Z,21.50
2022-11-08T20:24:39.697Z,21.50
2022-11-08T20:27:10.093Z,21.40
2022-11-08T20:29:40.482Z,21.40
2022-11-08T20:32:11.416Z,21.40
2022-11-08T20:34:42.250Z,21.40
2022-11-08T20:37:15.930Z,21.60
2022-11-08T20:39:46.731Z,21.60
2022-11-08T20:42:20.071Z,21.50
2022-11-08T20:44:50.795Z,21.30
2022-11-08T20:47:21.644Z,21.10
2022-11-08T20:49:52.067Z,20.80
2022-11-08T20:52:24.887Z,20.60
2022-11-08T20:54:55.925Z,20.70
2022-11-08T20:57:26.699Z,20.60
2022-11-08T20:59:57.639Z,20.80
2022-11-08T21:02:31.323Z,21.20
2022-11-08T21:05:01.713Z,21.20
2022-11-08T21:13:13.408Z,21.10
2022-11-08T21:15:48.838Z,21.20
2022-11-08T21:18:21.676Z,21.10
2022-11-08T21:21:02.918Z,21.30
2022-11-08T21:23:33.567Z,21.30
2022-11-08T21:26:03.956Z,21.20
2022-11-08T21:28:34.842Z,21.30
2022-11-08T21:31:04.786Z,21.30
2022-11-08T21:33:34.919Z,21.20
2022-11-08T21:36:05.104Z,21.30
2022-11-08T21:38:39.712Z,21.30
2022-11-08T21:41:12.645Z,21.40
2022-11-08T21:43:45.357Z,21.40
2022-11-08T21:46:25.781Z,21.30
2022-11-08T21:49:00.939Z,21.10
2022-11-08T21:51:31.922Z,21.20
2022-11-08T21:54:02.040Z,21.10
2022-11-08T21:56:35.027Z,21.10
2022-11-08T21:59:05.813Z,21.00
2022-11-08T22:01:36.008Z,20.90
2022-11-08T22:04:06.483Z,20.80
2022-11-08T22:06:36.897Z,20.80
2022-11-08T22:09:07.388Z,20.80
2022-11-08T22:11:38.628Z,20.80
2022-11-08T22:14:09.437Z,20.70
2022-11-08T22:16:39.665Z,20.70
2022-11-08T22:19:10.135Z,20.70
2022-11-08T22:21:41.601Z,20.70
2022-11-08T22:24:19.504Z,20.60
2022-11-08T22:26:51.223Z,20.60
2022-11-08T22:29:22.127Z,20.60
2022-11-08T22:31:52.595Z,20.90
2022-11-08T22:34:23.102Z,21.00
2022-11-08T22:36:53.712Z,20.90
2022-11-08T22:39:26.190Z,20.70
2022-11-08T22:41:57.518Z,20.80
2022-11-08T22:44:28.181Z,20.80
2022-11-08T22:46:58.564Z,20.80
2022-11-08T22:49:28.584Z,20.60
2022-11-08T22:51:59.379Z,20.60
2022-11-08T22:54:29.941Z,20.50
2022-11-08T22:57:00.221Z,20.30
2022-11-08T22:59:30.291Z,20.40
2022-11-08T23:02:00.399Z,20.60
2022-11-08T23:04:30.694Z,20.60
2022-11-08T23:07:00.859Z,20.60
2022-11-08T23:09:31.667Z,20.60
2022-11-08T23:12:21.796Z,20.60
2022-11-08T23:15:11.456Z,20.40
2022-11-08T23:17:41.737Z,20.50
2022-11-08T23:20:32.086Z,20.50
2022-11-08T23:23:21.716Z,20.50
2022-11-08T23:25:56.259Z,20.50
2022-11-08T23:28:45.860Z,20.30
2022-11-08T23:31:36.221Z,20.10
2022-11-08T23:34:07.132Z,20.20
2022-11-08T23:36:37.134Z,20.30
2022-11-08T23:39:07.496Z,20.50
2022-11-08T23:41:57.666Z,20.40
2022-11-08T23:44:28.174Z,20.60
2022-11-08T23:47:03.142Z,20.80
2022-11-08T23:49:33.512Z,20.70
2022-11-08T23:52:03.369Z,20.80
2022-11-08T23:54:33.621Z,20.80
2022-11-08T23:57:03.625Z,20.90
2022-11-08T23:59:33.984Z,21.00
